^^
Station Historical Data
Daily Summary for February 6, 2017 Units:  Metric    English   Both
« Previous Day
Next Day »
Daily Weekly Monthly Yearly Custom
  High: Low: Average:
Temperature: 37 °C 18.8 °C 28.9 °C
Dew Point: 13 °C 7.3 °C 10.1 °C
Humidity: 53% 21% 33%
Wind Speed: 25.9km/h 0km/h 8.4km/h
Wind Gust: 32.2km/h - -
Wind- - SSW
Pressure: 1009.4 hPa 1003.3 hPa -
Precipitation: 0 mm    
Historical Graphs
 
 
Tabular Data for February 6, 2017
Time Temperature Dew Point Pressure Wind Wind Speed Wind Gust Humidity Rainfall Rate (Hourly) solar Conditions
02:19 22 °C 9.2 °C 1009 hPa SW 11.1 km/h 17.7 km/h 44% 0 mm 0.0 W/m2
02:24 21.9 °C 9.1 °C 1008.7 hPa SW 16.3 km/h 17.7 km/h 44% 0 mm 0.0 W/m2
03:04 21.2 °C 9.1 °C 1009 hPa SW 14.3 km/h 16.1 km/h 46% 0 mm 0.0 W/m2
03:06 21.3 °C 9.2 °C 1008.7 hPa SW 16.3 km/h 19.3 km/h 46% 0 mm 0.0 W/m2
03:31 20.9 °C 9.2 °C 1008.7 hPa SW 14.3 km/h 17.7 km/h 47% 0 mm 0.0 W/m2
03:36 20.8 °C 9.1 °C 1008.7 hPa SW 11.1 km/h 17.7 km/h 47% 0 mm 0.0 W/m2
03:41 20.8 °C 9.1 °C 1008.7 hPa SW 13 km/h 16.1 km/h 47% 0 mm 0.0 W/m2
03:46 20.8 °C 9.1 °C 1008.4 hPa SW 11.1 km/h 16.1 km/h 47% 0 mm 0.0 W/m2
03:51 20.8 °C 9.1 °C 1008.4 hPa SW 13 km/h 17.7 km/h 47% 0 mm 0.0 W/m2
04:01 20.8 °C 9.1 °C 1008.4 hPa SW 9.7 km/h 14.5 km/h 47% 0 mm 0.0 W/m2
04:15 20.6 °C 9.2 °C 1008.4 hPa SW 11.1 km/h 16.1 km/h 48% 0 mm 0.0 W/m2
04:27 20.6 °C 9.2 °C 1008.4 hPa SSW 11.1 km/h 14.5 km/h 48% 0 mm 0.0 W/m2
04:45 20.2 °C 9.1 °C 1008.4 hPa SSW 9.7 km/h 11.3 km/h 49% 0 mm 0.0 W/m2
04:50 20.1 °C 9.1 °C 1008.4 hPa SSW 6.4 km/h 8 km/h 49% 0 mm 0.0 W/m2
06:16 19.1 °C 9 °C 1008.7 hPa SSW 6.4 km/h 8 km/h 52% 0 mm 0.0 W/m2
06:24 19 °C 9.2 °C 1008.7 hPa SSW 6.4 km/h 9.7 km/h 53% 0 mm 0.0 W/m2
06:32 18.9 °C 9.1 °C 1009 hPa SSW 6.4 km/h 8 km/h 53% 0 mm 5.0 W/m2
06:40 18.8 °C 9 °C 1009 hPa SSW 7.9 km/h 9.7 km/h 53% 0 mm 11.0 W/m2
06:46 19 °C 9.2 °C 1009 hPa SSW 6.4 km/h 11.3 km/h 53% 0 mm 14.0 W/m2
06:57 19.3 °C 9.2 °C 1009 hPa SSW 6.4 km/h 9.7 km/h 52% 0 mm 23.0 W/m2
07:06 19.5 °C 9.4 °C 1009 hPa SSW 7.9 km/h 9.7 km/h 52% 0 mm 60.0 W/m2
07:12 19.8 °C 9.4 °C 1009 hPa SSW 9.7 km/h 12.9 km/h 51% 0 mm 79.0 W/m2
09:18 24.4 °C 8.8 °C 1009.4 hPa SW 11.1 km/h 14.5 km/h 37% 0 mm 642.0 W/m2
09:33 25.3 °C 8.7 °C 1009.4 hPa SW 11.1 km/h 14.5 km/h 35% 0 mm 670.0 W/m2
09:43 25.7 °C 8.7 °C 1009.4 hPa SW 11.1 km/h 14.5 km/h 34% 0 mm 666.0 W/m2
09:48 25.9 °C 7.9 °C 1009.4 hPa SW 14.3 km/h 14.5 km/h 32% 0 mm 765.0 W/m2
09:58 26.2 °C 8.2 °C 1009 hPa SW 13 km/h 17.7 km/h 32% 0 mm 758.0 W/m2
10:13 27.1 °C 8.5 °C 1009 hPa SW 9.7 km/h 14.5 km/h 31% 0 mm 740.0 W/m2
10:16 26.8 °C 8.7 °C 1009 hPa SW 14.3 km/h 16.1 km/h 32% 0 mm 823.0 W/m2
10:40 28 °C 7.3 °C 1009 hPa SW 9.7 km/h 12.9 km/h 27% 0 mm 788.0 W/m2
10:45 28.4 °C 8.1 °C 1009 hPa SW 7.9 km/h 11.3 km/h 28% 0 mm 800.0 W/m2
10:55 28.9 °C 8 °C 1009 hPa Calm     27% 0 mm 828.0 W/m2
10:59 29.2 °C 8.3 °C 1008.7 hPa Calm     27% 0 mm 824.0 W/m2
11:07 29.6 °C 8.6 °C 1008.7 hPa Calm     27% 0 mm 846.0 W/m2
11:13 29.9 °C 8.9 °C 1008.7 hPa Calm     27% 0 mm 856.0 W/m2
11:21 30.7 °C 9.6 °C 1008.7 hPa Calm     27% 0 mm 877.0 W/m2
12:20 33 °C 12.6 °C 1008 hPa Calm   12.9 km/h 29% 0 mm 944.0 W/m2
12:26 33.3 °C 12.3 °C 1007.7 hPa Calm   6.4 km/h 28% 0 mm 954.0 W/m2
12:48 33.4 °C 12.4 °C 1007.3 hPa WNW 4.7 km/h 12.9 km/h 28% 0 mm 958.0 W/m2
12:57 33.9 °C 12.8 °C 1007.3 hPa Calm   8 km/h 28% 0 mm 965.0 W/m2
13:12 34.7 °C 13 °C 1007 hPa NW 3.2 km/h 9.7 km/h 27% 0 mm 965.0 W/m2
13:27 34.9 °C 12 °C 1006.7 hPa Calm     25% 0 mm 904.0 W/m2
13:42 35.3 °C 12.3 °C 1006.3 hPa NW 16.3 km/h 16.3 km/h 25% 0 mm 979.0 W/m2
13:58 35.8 °C 11.4 °C 1006 hPa Calm   11.3 km/h 23% 0 mm 1035.0 W/m2
14:13 35.9 °C 11.5 °C 1006 hPa Calm   20.9 km/h 23% 0 mm 1065.0 W/m2
14:28 36.1 °C 11.7 °C 1005.6 hPa NNE 7.9 km/h 19.3 km/h 23% 0 mm 995.0 W/m2
14:44 35.9 °C 11.5 °C 1005.6 hPa Calm     23% 0 mm 956.0 W/m2
15:06 36.7 °C 11.5 °C 1005.3 hPa NNE 3.2 km/h 16.1 km/h 22% 0 mm 995.0 W/m2
15:14 36.3 °C 11.9 °C 1005 hPa Calm     23% 0 mm 1027.0 W/m2
15:29 36.6 °C 12.1 °C 1004.6 hPa Calm   9.7 km/h 23% 0 mm 925.0 W/m2
15:45 37 °C 11.8 °C 1004.6 hPa NE 9.7 km/h 17.7 km/h 22% 0 mm 795.0 W/m2
16:00 36.4 °C 11.9 °C 1004.3 hPa Calm   9.7 km/h 23% 0 mm 831.0 W/m2
16:22 36.6 °C 11.4 °C 1004.3 hPa Calm   12.9 km/h 22% 0 mm 805.0 W/m2
16:30 36.8 °C 11.6 °C 1003.9 hPa East 4.7 km/h 6.4 km/h 22% 0 mm 726.0 W/m2
16:46 36.6 °C 11.4 °C 1003.6 hPa Calm   9.7 km/h 22% 0 mm 635.0 W/m2
17:01 36.7 °C 11.5 °C 1003.6 hPa SE 4.7 km/h 8 km/h 22% 0 mm 633.0 W/m2
17:22 36.9 °C 11 °C 1003.6 hPa SE 4.7 km/h 8 km/h 21% 0 mm 121.0 W/m2
17:38 36.3 °C 11.2 °C 1003.3 hPa Calm   12.9 km/h 22% 0 mm 250.0 W/m2
17:54 35.8 °C 10.8 °C 1003.3 hPa Calm     22% 0 mm 81.0 W/m2
18:08 35.7 °C 10.7 °C 1003.3 hPa Calm     22% 0 mm 60.0 W/m2
18:13 35.6 °C 10.6 °C 1003.3 hPa Calm     22% 0 mm 53.0 W/m2
18:28 35.6 °C 10.6 °C 1003.3 hPa Calm     22% 0 mm 46.0 W/m2
18:33 35.6 °C 10.6 °C 1003.3 hPa Calm     22% 0 mm 53.0 W/m2
18:48 35.4 °C 10.4 °C 1003.3 hPa Calm     22% 0 mm 32.0 W/m2
19:04 35.4 °C 9.7 °C 1003.6 hPa Calm     21% 0 mm 12.0 W/m2
19:21 35.3 °C 9.7 °C 1003.6 hPa Calm     21% 0 mm 7.0 W/m2
19:38 35.2 °C 9.6 °C 1003.9 hPa Calm     21% 0 mm 5.0 W/m2
19:53 34.6 °C 11.1 °C 1004.3 hPa SW 24.1 km/h 32.2 km/h 24% 0 mm 0.0 W/m2
20:01 32.8 °C 10.8 °C 1004.6 hPa SW 14.3 km/h 17.7 km/h 26% 0 mm 0.0 W/m2
20:23 33.2 °C 9.9 °C 1004.6 hPa South 24.1 km/h 25.7 km/h 24% 0 mm 0.0 W/m2
20:39 31.4 °C 10.2 °C 1005.3 hPa South 20.9 km/h 29 km/h 27% 0 mm 0.0 W/m2
20:46 31.1 °C 10.4 °C 1005.6 hPa SSW 13 km/h 29 km/h 28% 0 mm 0.0 W/m2
21:01 29.9 °C 9.9 °C 1006 hPa SSW 19.5 km/h 22.5 km/h 29% 0 mm 0.0 W/m2
21:16 28.9 °C 9.6 °C 1006.7 hPa SSW 25.9 km/h 27.4 km/h 30% 0 mm 0.0 W/m2
21:37 28.4 °C 10.1 °C 1006.7 hPa SSW 25.9 km/h 27.4 km/h 32% 0 mm 0.0 W/m2
21:49 27.9 °C 9.7 °C 1007 hPa South 24.1 km/h 25.7 km/h 32% 0 mm 0.0 W/m2
23:28 26.1 °C 9.9 °C 1007.3 hPa SSW 16.3 km/h 25.7 km/h 36% 0 mm 0.0 W/m2
23:33 26 °C 9.8 °C 1007.7 hPa SSW 16.3 km/h 20.9 km/h 36% 0 mm 0.0 W/m2
23:38 25.9 °C 10.1 °C 1007.7 hPa SSW 20.9 km/h 20.9 km/h 37% 0 mm 0.0 W/m2
23:43 25.9 °C 10.1 °C 1007.7 hPa SSW 13 km/h 20.9 km/h 37% 0 mm 0.0 W/m2
23:48 25.9 °C 10.1 °C 1007.7 hPa SSW 19.5 km/h 22.5 km/h 37% 0 mm 0.0 W/m2
23:53 25.8 °C 10 °C 1007.7 hPa SSW 14.3 km/h 22.5 km/h 37% 0 mm 0.0 W/m2
23:59 25.8 °C 10 °C 1007.7 hPa SSW 19.5 km/h 19.5 km/h 37% 0 mm 0.0 W/m2
Canyon Roadhouse, Fishriver Canyon, Namibia
Compliments of Weather Underground - 2 mb